sensor_id;sensor_type;location;lat;lon;timestamp;P1;durP1;ratioP1;P2;durP2;ratioP2
3547;SDS011;1788;49.400;11.092;2022-09-09T00:00:55;1.60;;;1.50;;
3547;SDS011;1788;49.400;11.092;2022-09-09T00:03:29;2.33;;;2.20;;
3547;SDS011;1788;49.400;11.092;2022-09-09T00:05:50;2.23;;;2.00;;
3547;SDS011;1788;49.400;11.092;2022-09-09T00:08:18;2.37;;;2.17;;
3547;SDS011;1788;49.400;11.092;2022-09-09T00:10:40;2.27;;;2.07;;
3547;SDS011;1788;49.400;11.092;2022-09-09T00:18:05;2.50;;;2.30;;
3547;SDS011;1788;49.400;11.092;2022-09-09T00:20:30;1.93;;;1.83;;
3547;SDS011;1788;49.400;11.092;2022-09-09T00:27:49;2.33;;;2.13;;
3547;SDS011;1788;49.400;11.092;2022-09-09T00:30:17;2.13;;;1.97;;
3547;SDS011;1788;49.400;11.092;2022-09-09T00:32:41;2.40;;;2.27;;
3547;SDS011;1788;49.400;11.092;2022-09-09T00:37:35;2.30;;;1.80;;
3547;SDS011;1788;49.400;11.092;2022-09-09T00:40:02;2.40;;;2.03;;
3547;SDS011;1788;49.400;11.092;2022-09-09T01:02:08;2.20;;;2.00;;
3547;SDS011;1788;49.400;11.092;2022-09-09T01:04:32;4.00;;;2.27;;
3547;SDS011;1788;49.400;11.092;2022-09-09T01:07:02;2.27;;;2.00;;
3547;SDS011;1788;49.400;11.092;2022-09-09T01:11:55;2.03;;;1.93;;
3547;SDS011;1788;49.400;11.092;2022-09-09T01:16:46;3.07;;;2.27;;
3547;SDS011;1788;49.400;11.092;2022-09-09T01:19:16;2.33;;;2.13;;
3547;SDS011;1788;49.400;11.092;2022-09-09T01:29:00;2.43;;;2.23;;
3547;SDS011;1788;49.400;11.092;2022-09-09T01:31:29;2.63;;;2.43;;
3547;SDS011;1788;49.400;11.092;2022-09-09T01:33:54;2.13;;;1.90;;
3547;SDS011;1788;49.400;11.092;2022-09-09T01:36:24;2.87;;;2.53;;
3547;SDS011;1788;49.400;11.092;2022-09-09T01:38:48;3.53;;;2.30;;
3547;SDS011;1788;49.400;11.092;2022-09-09T01:41:14;5.20;;;2.70;;
3547;SDS011;1788;49.400;11.092;2022-09-09T01:43:41;2.30;;;2.13;;
3547;SDS011;1788;49.400;11.092;2022-09-09T01:46:07;2.37;;;2.20;;
3547;SDS011;1788;49.400;11.092;2022-09-09T01:48:35;2.57;;;2.40;;
3547;SDS011;1788;49.400;11.092;2022-09-09T01:51:01;2.00;;;1.90;;
3547;SDS011;1788;49.400;11.092;2022-09-09T01:53:29;3.30;;;2.30;;
3547;SDS011;1788;49.400;11.092;2022-09-09T02:17:57;1.93;;;1.87;;
3547;SDS011;1788;49.400;11.092;2022-09-09T02:20:23;4.00;;;2.17;;
3547;SDS011;1788;49.400;11.092;2022-09-09T02:22:50;2.67;;;2.27;;
3547;SDS011;1788;49.400;11.092;2022-09-09T02:25:18;2.67;;;2.30;;
3547;SDS011;1788;49.400;11.092;2022-09-09T02:27:45;2.40;;;2.20;;
3547;SDS011;1788;49.400;11.092;2022-09-09T02:30:11;3.13;;;2.30;;
3547;SDS011;1788;49.400;11.092;2022-09-09T02:32:38;2.43;;;2.23;;
3547;SDS011;1788;49.400;11.092;2022-09-09T02:35:06;4.50;;;2.50;;
3547;SDS011;1788;49.400;11.092;2022-09-09T02:37:32;2.70;;;2.33;;
3547;SDS011;1788;49.400;11.092;2022-09-09T02:39:57;2.60;;;2.40;;
3547;SDS011;1788;49.400;11.092;2022-09-09T02:42:24;2.43;;;2.23;;
3547;SDS011;1788;49.400;11.092;2022-09-09T02:44:51;2.63;;;2.43;;
3547;SDS011;1788;49.400;11.092;2022-09-09T02:49:49;2.97;;;1.93;;
3547;SDS011;1788;49.400;11.092;2022-09-09T02:54:38;2.47;;;1.97;;
3547;SDS011;1788;49.400;11.092;2022-09-09T02:59:31;2.63;;;2.20;;
3547;SDS011;1788;49.400;11.092;2022-09-09T03:01:58;2.70;;;2.50;;
3547;SDS011;1788;49.400;11.092;2022-09-09T03:04:24;3.70;;;2.33;;
3547;SDS011;1788;49.400;11.092;2022-09-09T03:06:51;2.00;;;1.90;;
3547;SDS011;1788;49.400;11.092;2022-09-09T03:09:17;2.80;;;2.43;;
3547;SDS011;1788;49.400;11.092;2022-09-09T03:11:45;2.00;;;1.80;;
3547;SDS011;1788;49.400;11.092;2022-09-09T03:14:12;2.40;;;2.20;;
3547;SDS011;1788;49.400;11.092;2022-09-09T03:16:39;3.70;;;1.97;;
3547;SDS011;1788;49.400;11.092;2022-09-09T03:19:05;2.40;;;2.20;;
3547;SDS011;1788;49.400;11.092;2022-09-09T03:21:32;2.97;;;2.37;;
3547;SDS011;1788;49.400;11.092;2022-09-09T03:23:59;2.20;;;2.00;;
3547;SDS011;1788;49.400;11.092;2022-09-09T03:26:25;2.40;;;2.20;;
3547;SDS011;1788;49.400;11.092;2022-09-09T03:28:52;2.70;;;2.50;;
3547;SDS011;1788;49.400;11.092;2022-09-09T03:31:19;2.40;;;2.20;;
3547;SDS011;1788;49.400;11.092;2022-09-09T03:33:45;2.47;;;1.93;;
3547;SDS011;1788;49.400;11.092;2022-09-09T03:36:12;1.90;;;1.80;;
3547;SDS011;1788;49.400;11.092;2022-09-09T03:38:39;2.40;;;2.20;;
3547;SDS011;1788;49.400;11.092;2022-09-09T03:41:06;3.83;;;2.50;;
3547;SDS011;1788;49.400;11.092;2022-09-09T03:43:33;2.73;;;2.53;;
3547;SDS011;1788;49.400;11.092;2022-09-09T03:45:59;2.50;;;2.27;;
3547;SDS011;1788;49.400;11.092;2022-09-09T03:48:26;3.13;;;2.17;;
3547;SDS011;1788;49.400;11.092;2022-09-09T03:50:53;3.20;;;2.07;;
3547;SDS011;1788;49.400;11.092;2022-09-09T03:53:21;3.03;;;2.60;;
3547;SDS011;1788;49.400;11.092;2022-09-09T03:58:14;2.23;;;2.03;;
3547;SDS011;1788;49.400;11.092;2022-09-09T04:00:40;2.33;;;2.10;;
3547;SDS011;1788;49.400;11.092;2022-09-09T04:03:08;2.60;;;2.40;;
3547;SDS011;1788;49.400;11.092;2022-09-09T04:05:34;2.37;;;2.20;;
3547;SDS011;1788;49.400;11.092;2022-09-09T04:08:01;2.80;;;2.60;;
3547;SDS011;1788;49.400;11.092;2022-09-09T04:10:28;4.07;;;2.47;;
3547;SDS011;1788;49.400;11.092;2022-09-09T04:12:54;2.63;;;2.37;;
3547;SDS011;1788;49.400;11.092;2022-09-09T04:15:21;2.37;;;2.17;;
3547;SDS011;1788;49.400;11.092;2022-09-09T04:17:48;2.30;;;2.00;;
3547;SDS011;1788;49.400;11.092;2022-09-09T04:20:15;2.50;;;2.33;;
3547;SDS011;1788;49.400;11.092;2022-09-09T04:22:42;2.17;;;1.93;;
3547;SDS011;1788;49.400;11.092;2022-09-09T04:25:09;2.37;;;2.17;;
3547;SDS011;1788;49.400;11.092;2022-09-09T04:27:36;2.80;;;2.40;;
3547;SDS011;1788;49.400;11.092;2022-09-09T04:30:03;2.57;;;2.20;;
3547;SDS011;1788;49.400;11.092;2022-09-09T04:32:29;2.23;;;2.07;;
3547;SDS011;1788;49.400;11.092;2022-09-09T04:34:56;2.60;;;2.40;;
3547;SDS011;1788;49.400;11.092;2022-09-09T04:37:23;2.60;;;2.40;;
3547;SDS011;1788;49.400;11.092;2022-09-09T04:39:49;2.17;;;2.03;;
3547;SDS011;1788;49.400;11.092;2022-09-09T04:42:17;3.63;;;2.70;;
3547;SDS011;1788;49.400;11.092;2022-09-09T04:44:43;2.20;;;2.00;;
3547;SDS011;1788;49.400;11.092;2022-09-09T04:47:10;2.13;;;1.97;;
3547;SDS011;1788;49.400;11.092;2022-09-09T04:49:36;2.67;;;2.40;;
3547;SDS011;1788;49.400;11.092;2022-09-09T04:52:03;4.83;;;2.90;;
3547;SDS011;1788;49.400;11.092;2022-09-09T04:54:30;3.67;;;2.20;;
3547;SDS011;1788;49.400;11.092;2022-09-09T04:56:56;2.67;;;2.47;;
3547;SDS011;1788;49.400;11.092;2022-09-09T04:59:23;2.50;;;2.33;;
3547;SDS011;1788;49.400;11.092;2022-09-09T05:01:50;2.30;;;2.10;;
3547;SDS011;1788;49.400;11.092;2022-09-09T05:04:17;3.53;;;2.20;;
3547;SDS011;1788;49.400;11.092;2022-09-09T05:06:44;5.03;;;2.47;;
3547;SDS011;1788;49.400;11.092;2022-09-09T05:09:11;3.50;;;2.93;;
3547;SDS011;1788;49.400;11.092;2022-09-09T05:11:38;2.43;;;2.27;;
3547;SDS011;1788;49.400;11.092;2022-09-09T05:14:04;2.53;;;2.10;;
3547;SDS011;1788;49.400;11.092;2022-09-09T05:16:31;2.80;;;2.20;;
3547;SDS011;1788;49.400;11.092;2022-09-09T05:18:58;2.70;;;2.50;;
3547;SDS011;1788;49.400;11.092;2022-09-09T05:21:25;3.20;;;2.27;;
3547;SDS011;1788;49.400;11.092;2022-09-09T05:23:52;2.27;;;2.10;;
3547;SDS011;1788;49.400;11.092;2022-09-09T05:26:20;3.23;;;3.03;;
3547;SDS011;1788;49.400;11.092;2022-09-09T05:28:46;2.70;;;2.50;;
3547;SDS011;1788;49.400;11.092;2022-09-09T05:31:13;3.13;;;2.53;;
3547;SDS011;1788;49.400;11.092;2022-09-09T05:33:40;5.63;;;2.87;;
3547;SDS011;1788;49.400;11.092;2022-09-09T05:36:07;2.90;;;2.70;;
3547;SDS011;1788;49.400;11.092;2022-09-09T05:38:33;2.97;;;2.77;;
3547;SDS011;1788;49.400;11.092;2022-09-09T05:41:00;2.93;;;2.73;;
3547;SDS011;1788;49.400;11.092;2022-09-09T05:43:26;3.43;;;3.10;;
3547;SDS011;1788;49.400;11.092;2022-09-09T05:48:19;3.27;;;2.87;;
3547;SDS011;1788;49.400;11.092;2022-09-09T05:50:52;3.10;;;2.90;;
3547;SDS011;1788;49.400;11.092;2022-09-09T05:53:13;3.10;;;2.50;;
3547;SDS011;1788;49.400;11.092;2022-09-09T05:55:39;3.13;;;2.93;;
3547;SDS011;1788;49.400;11.092;2022-09-09T05:58:07;2.67;;;2.47;;
3547;SDS011;1788;49.400;11.092;2022-09-09T06:00:33;3.43;;;2.83;;
3547;SDS011;1788;49.400;11.092;2022-09-09T06:03:01;5.20;;;2.80;;
3547;SDS011;1788;49.400;11.092;2022-09-09T06:05:28;3.77;;;2.50;;
3547;SDS011;1788;49.400;11.092;2022-09-09T06:07:54;4.50;;;2.43;;
3547;SDS011;1788;49.400;11.092;2022-09-09T06:10:22;2.77;;;2.57;;
3547;SDS011;1788;49.400;11.092;2022-09-09T06:12:48;2.63;;;2.43;;
3547;SDS011;1788;49.400;11.092;2022-09-09T06:15:16;3.40;;;2.53;;
3547;SDS011;1788;49.400;11.092;2022-09-09T06:17:42;3.43;;;2.70;;
3547;SDS011;1788;49.400;11.092;2022-09-09T06:20:10;4.13;;;2.70;;
3547;SDS011;1788;49.400;11.092;2022-09-09T06:22:38;2.70;;;2.30;;
3547;SDS011;1788;49.400;11.092;2022-09-09T06:25:04;3.20;;;2.93;;
3547;SDS011;1788;49.400;11.092;2022-09-09T06:27:30;2.83;;;2.43;;
3547;SDS011;1788;49.400;11.092;2022-09-09T06:29:57;2.80;;;2.60;;
3547;SDS011;1788;49.400;11.092;2022-09-09T06:32:24;3.67;;;2.47;;
3547;SDS011;1788;49.400;11.092;2022-09-09T06:34:50;2.30;;;1.93;;
3547;SDS011;1788;49.400;11.092;2022-09-09T06:37:18;2.50;;;2.30;;
3547;SDS011;1788;49.400;11.092;2022-09-09T06:39:45;2.87;;;2.20;;
3547;SDS011;1788;49.400;11.092;2022-09-09T06:42:12;2.00;;;1.90;;
3547;SDS011;1788;49.400;11.092;2022-09-09T06:44:39;2.67;;;2.47;;
3547;SDS011;1788;49.400;11.092;2022-09-09T06:47:06;1.93;;;1.83;;
3547;SDS011;1788;49.400;11.092;2022-09-09T06:49:32;2.07;;;1.93;;
3547;SDS011;1788;49.400;11.092;2022-09-09T06:51:59;4.87;;;2.43;;
3547;SDS011;1788;49.400;11.092;2022-09-09T06:54:25;2.13;;;2.00;;
3547;SDS011;1788;49.400;11.092;2022-09-09T06:56:53;3.20;;;2.20;;
3547;SDS011;1788;49.400;11.092;2022-09-09T06:59:19;3.13;;;1.90;;
3547;SDS011;1788;49.400;11.092;2022-09-09T07:01:46;2.23;;;2.00;;
3547;SDS011;1788;49.400;11.092;2022-09-09T07:04:13;2.27;;;2.07;;
3547;SDS011;1788;49.400;11.092;2022-09-09T07:06:41;2.30;;;1.90;;
3547;SDS011;1788;49.400;11.092;2022-09-09T07:09:08;2.33;;;2.07;;
3547;SDS011;1788;49.400;11.092;2022-09-09T07:11:34;4.57;;;2.40;;
3547;SDS011;1788;49.400;11.092;2022-09-09T07:14:00;2.60;;;2.40;;
3547;SDS011;1788;49.400;11.092;2022-09-09T07:16:27;2.43;;;2.03;;
3547;SDS011;1788;49.400;11.092;2022-09-09T07:18:54;2.07;;;1.93;;
3547;SDS011;1788;49.400;11.092;2022-09-09T07:21:21;2.70;;;1.77;;
3547;SDS011;1788;49.400;11.092;2022-09-09T07:23:47;3.00;;;1.73;;
3547;SDS011;1788;49.400;11.092;2022-09-09T07:26:15;2.90;;;2.27;;
3547;SDS011;1788;49.400;11.092;2022-09-09T07:28:41;3.40;;;2.00;;
3547;SDS011;1788;49.400;11.092;2022-09-09T07:31:12;2.50;;;2.30;;
3547;SDS011;1788;49.400;11.092;2022-09-09T07:33:34;1.93;;;1.70;;
3547;SDS011;1788;49.400;11.092;2022-09-09T07:38:27;3.87;;;2.10;;
3547;SDS011;1788;49.400;11.092;2022-09-09T07:40:54;2.77;;;1.80;;
3547;SDS011;1788;49.400;11.092;2022-09-09T07:43:25;2.10;;;1.67;;
3547;SDS011;1788;49.400;11.092;2022-09-09T07:45:48;2.20;;;1.93;;
3547;SDS011;1788;49.400;11.092;2022-09-09T07:48:15;2.27;;;2.07;;
3547;SDS011;1788;49.400;11.092;2022-09-09T07:50:42;1.57;;;1.37;;
3547;SDS011;1788;49.400;11.092;2022-09-09T07:53:08;2.77;;;1.80;;
3547;SDS011;1788;49.400;11.092;2022-09-09T07:55:35;3.83;;;2.00;;
3547;SDS011;1788;49.400;11.092;2022-09-09T07:58:02;2.33;;;1.97;;
3547;SDS011;1788;49.400;11.092;2022-09-09T08:00:29;1.80;;;1.70;;
3547;SDS011;1788;49.400;11.092;2022-09-09T08:02:56;2.80;;;1.70;;
3547;SDS011;1788;49.400;11.092;2022-09-09T08:05:22;2.33;;;2.17;;
3547;SDS011;1788;49.400;11.092;2022-09-09T08:07:50;1.53;;;1.47;;
3547;SDS011;1788;49.400;11.092;2022-09-09T08:10:16;2.90;;;1.80;;
3547;SDS011;1788;49.400;11.092;2022-09-09T08:12:43;1.87;;;1.27;;
3547;SDS011;1788;49.400;11.092;2022-09-09T08:15:10;1.80;;;1.37;;
3547;SDS011;1788;49.400;11.092;2022-09-09T08:17:36;2.87;;;1.67;;
3547;SDS011;1788;49.400;11.092;2022-09-09T08:20:04;1.30;;;1.20;;
3547;SDS011;1788;49.400;11.092;2022-09-09T08:22:30;1.17;;;1.07;;
3547;SDS011;1788;49.400;11.092;2022-09-09T08:24:58;2.30;;;1.70;;
3547;SDS011;1788;49.400;11.092;2022-09-09T08:27:24;1.77;;;1.63;;
3547;SDS011;1788;49.400;11.092;2022-09-09T08:29:52;2.20;;;1.10;;
3547;SDS011;1788;49.400;11.092;2022-09-09T08:32:18;1.47;;;1.30;;
3547;SDS011;1788;49.400;11.092;2022-09-09T08:34:45;2.87;;;1.77;;
3547;SDS011;1788;49.400;11.092;2022-09-09T08:37:11;2.43;;;1.40;;
3547;SDS011;1788;49.400;11.092;2022-09-09T08:39:38;3.23;;;1.30;;
3547;SDS011;1788;49.400;11.092;2022-09-09T08:42:08;4.93;;;1.80;;
3547;SDS011;1788;49.400;11.092;2022-09-09T08:44:36;2.20;;;1.70;;
3547;SDS011;1788;49.400;11.092;2022-09-09T08:47:03;2.60;;;1.30;;
3547;SDS011;1788;49.400;11.092;2022-09-09T08:49:34;6.60;;;2.00;;
3547;SDS011;1788;49.400;11.092;2022-09-09T08:51:53;2.70;;;1.37;;
3547;SDS011;1788;49.400;11.092;2022-09-09T08:54:18;3.23;;;1.77;;
3547;SDS011;1788;49.400;11.092;2022-09-09T08:56:45;1.10;;;1.00;;
3547;SDS011;1788;49.400;11.092;2022-09-09T08:59:12;1.50;;;1.20;;
3547;SDS011;1788;49.400;11.092;2022-09-09T09:06:38;1.13;;;1.10;;
3547;SDS011;1788;49.400;11.092;2022-09-09T09:11:25;2.20;;;1.10;;
3547;SDS011;1788;49.400;11.092;2022-09-09T09:18:46;1.50;;;0.70;;
3547;SDS011;1788;49.400;11.092;2022-09-09T09:26:07;1.43;;;0.80;;
3547;SDS011;1788;49.400;11.092;2022-09-09T09:28:33;1.87;;;0.60;;
3547;SDS011;1788;49.400;11.092;2022-09-09T09:31:01;0.80;;;0.43;;
3547;SDS011;1788;49.400;11.092;2022-09-09T09:35:53;1.80;;;0.90;;
3547;SDS011;1788;49.400;11.092;2022-09-09T09:50:33;1.27;;;1.10;;
3547;SDS011;1788;49.400;11.092;2022-09-09T09:53:01;0.70;;;0.60;;
3547;SDS011;1788;49.400;11.092;2022-09-09T09:55:27;0.53;;;0.53;;
3547;SDS011;1788;49.400;11.092;2022-09-09T09:57:54;0.57;;;0.40;;
3547;SDS011;1788;49.400;11.092;2022-09-09T10:00:21;1.07;;;1.00;;
3547;SDS011;1788;49.400;11.092;2022-09-09T10:02:48;1.70;;;0.80;;
3547;SDS011;1788;49.400;11.092;2022-09-09T10:07:41;1.03;;;0.73;;
3547;SDS011;1788;49.400;11.092;2022-09-09T10:10:18;0.87;;;0.80;;
3547;SDS011;1788;49.400;11.092;2022-09-09T10:22:25;2.70;;;0.87;;
3547;SDS011;1788;49.400;11.092;2022-09-09T10:24:54;2.33;;;0.80;;
3547;SDS011;1788;49.400;11.092;2022-09-09T10:37:06;1.93;;;1.13;;
3547;SDS011;1788;49.400;11.092;2022-09-09T10:44:28;0.87;;;0.63;;
3547;SDS011;1788;49.400;11.092;2022-09-09T10:56:40;2.57;;;0.93;;
3547;SDS011;1788;49.400;11.092;2022-09-09T10:59:10;3.37;;;2.00;;
3547;SDS011;1788;49.400;11.092;2022-09-09T11:04:02;1.00;;;0.70;;
3547;SDS011;1788;49.400;11.092;2022-09-09T11:08:53;1.90;;;1.10;;
3547;SDS011;1788;49.400;11.092;2022-09-09T11:11:21;2.17;;;0.83;;
3547;SDS011;1788;49.400;11.092;2022-09-09T11:18:40;1.23;;;0.90;;
3547;SDS011;1788;49.400;11.092;2022-09-09T11:21:08;2.37;;;1.27;;
3547;SDS011;1788;49.400;11.092;2022-09-09T11:26:00;1.07;;;1.00;;
3547;SDS011;1788;49.400;11.092;2022-09-09T11:38:16;0.90;;;0.70;;
3547;SDS011;1788;49.400;11.092;2022-09-09T11:40:40;1.33;;;1.20;;
3547;SDS011;1788;49.400;11.092;2022-09-09T11:45:35;2.80;;;1.43;;
3547;SDS011;1788;49.400;11.092;2022-09-09T11:48:02;2.20;;;0.93;;
3547;SDS011;1788;49.400;11.092;2022-09-09T11:50:29;2.43;;;1.30;;
3547;SDS011;1788;49.400;11.092;2022-09-09T11:55:25;1.13;;;0.83;;
3547;SDS011;1788;49.400;11.092;2022-09-09T11:57:48;2.33;;;0.77;;
3547;SDS011;1788;49.400;11.092;2022-09-09T12:02:48;2.00;;;1.13;;
3547;SDS011;1788;49.400;11.092;2022-09-09T12:05:08;1.07;;;0.90;;
3547;SDS011;1788;49.400;11.092;2022-09-09T12:14:56;2.03;;;1.00;;
3547;SDS011;1788;49.400;11.092;2022-09-09T12:17:23;1.40;;;1.00;;
3547;SDS011;1788;49.400;11.092;2022-09-09T12:19:59;3.67;;;1.50;;
3547;SDS011;1788;49.400;11.092;2022-09-09T12:32:07;0.50;;;0.40;;
3547;SDS011;1788;49.400;11.092;2022-09-09T12:41:52;1.10;;;0.90;;
3547;SDS011;1788;49.400;11.092;2022-09-09T12:44:17;1.37;;;0.87;;
3547;SDS011;1788;49.400;11.092;2022-09-09T12:46:44;0.57;;;0.50;;
3547;SDS011;1788;49.400;11.092;2022-09-09T12:51:38;0.87;;;0.77;;
3547;SDS011;1788;49.400;11.092;2022-09-09T12:54:04;2.23;;;0.80;;
3547;SDS011;1788;49.400;11.092;2022-09-09T12:56:32;0.87;;;0.60;;
3547;SDS011;1788;49.400;11.092;2022-09-09T12:58:58;2.53;;;1.13;;
3547;SDS011;1788;49.400;11.092;2022-09-09T13:03:52;3.23;;;0.70;;
3547;SDS011;1788;49.400;11.092;2022-09-09T13:08:46;1.70;;;0.60;;
3547;SDS011;1788;49.400;11.092;2022-09-09T13:11:13;0.70;;;0.60;;
3547;SDS011;1788;49.400;11.092;2022-09-09T13:13:40;2.50;;;0.60;;
3547;SDS011;1788;49.400;11.092;2022-09-09T13:18:34;3.03;;;1.37;;
3547;SDS011;1788;49.400;11.092;2022-09-09T13:21:00;1.90;;;0.70;;
3547;SDS011;1788;49.400;11.092;2022-09-09T13:23:28;3.60;;;1.40;;
3547;SDS011;1788;49.400;11.092;2022-09-09T13:25:56;0.87;;;0.80;;
3547;SDS011;1788;49.400;11.092;2022-09-09T13:28:22;4.37;;;0.90;;
3547;SDS011;1788;49.400;11.092;2022-09-09T13:38:08;0.83;;;0.63;;
3547;SDS011;1788;49.400;11.092;2022-09-09T13:40:35;0.80;;;0.70;;
3547;SDS011;1788;49.400;11.092;2022-09-09T13:43:02;3.07;;;2.20;;
3547;SDS011;1788;49.400;11.092;2022-09-09T13:45:29;1.37;;;1.00;;
3547;SDS011;1788;49.400;11.092;2022-09-09T13:47:56;1.27;;;0.60;;
3547;SDS011;1788;49.400;11.092;2022-09-09T13:50:24;2.60;;;0.70;;
3547;SDS011;1788;49.400;11.092;2022-09-09T13:52:50;1.10;;;0.87;;
3547;SDS011;1788;49.400;11.092;2022-09-09T13:55:16;1.70;;;0.77;;
3547;SDS011;1788;49.400;11.092;2022-09-09T14:00:12;1.47;;;0.73;;
3547;SDS011;1788;49.400;11.092;2022-09-09T14:02:38;0.67;;;0.57;;
3547;SDS011;1788;49.400;11.092;2022-09-09T14:05:06;0.87;;;0.50;;
3547;SDS011;1788;49.400;11.092;2022-09-09T14:07:32;0.63;;;0.53;;
3547;SDS011;1788;49.400;11.092;2022-09-09T14:09:59;0.90;;;0.50;;
3547;SDS011;1788;49.400;11.092;2022-09-09T14:12:26;2.07;;;0.60;;
3547;SDS011;1788;49.400;11.092;2022-09-09T14:14:52;0.63;;;0.30;;
3547;SDS011;1788;49.400;11.092;2022-09-09T14:17:19;1.10;;;0.50;;
3547;SDS011;1788;49.400;11.092;2022-09-09T14:19:45;0.87;;;0.70;;
3547;SDS011;1788;49.400;11.092;2022-09-09T14:22:12;0.63;;;0.60;;
3547;SDS011;1788;49.400;11.092;2022-09-09T14:24:39;0.97;;;0.70;;
3547;SDS011;1788;49.400;11.092;2022-09-09T14:27:05;1.33;;;0.70;;
3547;SDS011;1788;49.400;11.092;2022-09-09T14:29:32;1.07;;;0.97;;
3547;SDS011;1788;49.400;11.092;2022-09-09T14:31:58;1.23;;;0.93;;
3547;SDS011;1788;49.400;11.092;2022-09-09T14:34:25;2.30;;;0.80;;
3547;SDS011;1788;49.400;11.092;2022-09-09T14:36:52;1.20;;;0.93;;
3547;SDS011;1788;49.400;11.092;2022-09-09T14:39:18;0.83;;;0.73;;
3547;SDS011;1788;49.400;11.092;2022-09-09T14:41:45;1.67;;;0.90;;
3547;SDS011;1788;49.400;11.092;2022-09-09T14:44:11;1.83;;;1.07;;
3547;SDS011;1788;49.400;11.092;2022-09-09T14:46:38;2.57;;;1.07;;
3547;SDS011;1788;49.400;11.092;2022-09-09T14:49:05;1.10;;;0.73;;
3547;SDS011;1788;49.400;11.092;2022-09-09T14:51:31;1.33;;;1.23;;
3547;SDS011;1788;49.400;11.092;2022-09-09T14:53:59;2.53;;;1.00;;
3547;SDS011;1788;49.400;11.092;2022-09-09T14:56:26;1.03;;;0.90;;
3547;SDS011;1788;49.400;11.092;2022-09-09T14:58:53;1.73;;;0.87;;
3547;SDS011;1788;49.400;11.092;2022-09-09T15:01:20;2.33;;;0.80;;
3547;SDS011;1788;49.400;11.092;2022-09-09T15:06:14;2.50;;;1.10;;
3547;SDS011;1788;49.400;11.092;2022-09-09T15:08:42;1.90;;;1.13;;
3547;SDS011;1788;49.400;11.092;2022-09-09T15:11:08;1.00;;;0.90;;
3547;SDS011;1788;49.400;11.092;2022-09-09T15:13:34;1.27;;;1.00;;
3547;SDS011;1788;49.400;11.092;2022-09-09T15:18:27;0.93;;;0.57;;
3547;SDS011;1788;49.400;11.092;2022-09-09T15:20:55;1.30;;;0.90;;
3547;SDS011;1788;49.400;11.092;2022-09-09T15:23:21;2.43;;;0.93;;
3547;SDS011;1788;49.400;11.092;2022-09-09T15:28:15;1.73;;;0.70;;
3547;SDS011;1788;49.400;11.092;2022-09-09T15:30:42;1.63;;;0.90;;
3547;SDS011;1788;49.400;11.092;2022-09-09T15:33:09;1.07;;;0.90;;
3547;SDS011;1788;49.400;11.092;2022-09-09T15:35:35;1.13;;;0.73;;
3547;SDS011;1788;49.400;11.092;2022-09-09T15:38:02;1.47;;;0.70;;
3547;SDS011;1788;49.400;11.092;2022-09-09T15:40:28;1.30;;;0.87;;
3547;SDS011;1788;49.400;11.092;2022-09-09T15:42:55;3.77;;;0.87;;
3547;SDS011;1788;49.400;11.092;2022-09-09T15:45:22;1.07;;;0.60;;
3547;SDS011;1788;49.400;11.092;2022-09-09T15:47:48;1.13;;;0.77;;
3547;SDS011;1788;49.400;11.092;2022-09-09T15:50:15;0.87;;;0.50;;
3547;SDS011;1788;49.400;11.092;2022-09-09T15:52:41;0.60;;;0.60;;
3547;SDS011;1788;49.400;11.092;2022-09-09T15:55:08;0.60;;;0.50;;
3547;SDS011;1788;49.400;11.092;2022-09-09T15:57:35;1.57;;;0.30;;
3547;SDS011;1788;49.400;11.092;2022-09-09T16:00:03;0.40;;;0.30;;
3547;SDS011;1788;49.400;11.092;2022-09-09T16:02:29;0.30;;;0.30;;
3547;SDS011;1788;49.400;11.092;2022-09-09T16:04:55;0.50;;;0.43;;
3547;SDS011;1788;49.400;11.092;2022-09-09T16:07:22;0.87;;;0.30;;
3547;SDS011;1788;49.400;11.092;2022-09-09T16:09:49;1.30;;;0.50;;
3547;SDS011;1788;49.400;11.092;2022-09-09T16:12:16;0.93;;;0.53;;
3547;SDS011;1788;49.400;11.092;2022-09-09T16:14:42;2.20;;;0.90;;
3547;SDS011;1788;49.400;11.092;2022-09-09T16:17:09;0.50;;;0.40;;
3547;SDS011;1788;49.400;11.092;2022-09-09T16:19:38;0.80;;;0.70;;
3547;SDS011;1788;49.400;11.092;2022-09-09T16:22:04;0.83;;;0.20;;
3547;SDS011;1788;49.400;11.092;2022-09-09T16:24:32;0.60;;;0.50;;
3547;SDS011;1788;49.400;11.092;2022-09-09T16:26:58;0.73;;;0.47;;
3547;SDS011;1788;49.400;11.092;2022-09-09T16:29:25;0.70;;;0.60;;
3547;SDS011;1788;49.400;11.092;2022-09-09T16:31:51;1.87;;;0.60;;
3547;SDS011;1788;49.400;11.092;2022-09-09T16:34:18;0.63;;;0.60;;
3547;SDS011;1788;49.400;11.092;2022-09-09T16:36:46;0.63;;;0.57;;
3547;SDS011;1788;49.400;11.092;2022-09-09T16:39:13;2.57;;;1.73;;
3547;SDS011;1788;49.400;11.092;2022-09-09T16:41:42;0.80;;;0.70;;
3547;SDS011;1788;49.400;11.092;2022-09-09T16:44:09;0.50;;;0.40;;
3547;SDS011;1788;49.400;11.092;2022-09-09T16:46:37;2.17;;;0.70;;
3547;SDS011;1788;49.400;11.092;2022-09-09T16:49:03;0.93;;;0.30;;
3547;SDS011;1788;49.400;11.092;2022-09-09T16:51:30;1.93;;;0.80;;
3547;SDS011;1788;49.400;11.092;2022-09-09T16:53:57;1.60;;;0.30;;
3547;SDS011;1788;49.400;11.092;2022-09-09T16:56:23;2.10;;;0.63;;
3547;SDS011;1788;49.400;11.092;2022-09-09T16:58:50;1.33;;;0.50;;
3547;SDS011;1788;49.400;11.092;2022-09-09T17:01:16;2.03;;;0.73;;
3547;SDS011;1788;49.400;11.092;2022-09-09T17:03:43;1.40;;;1.07;;
3547;SDS011;1788;49.400;11.092;2022-09-09T17:06:11;2.47;;;1.40;;
3547;SDS011;1788;49.400;11.092;2022-09-09T17:08:38;0.70;;;0.67;;
3547;SDS011;1788;49.400;11.092;2022-09-09T17:13:33;1.27;;;0.80;;
3547;SDS011;1788;49.400;11.092;2022-09-09T17:16:03;0.97;;;0.50;;
3547;SDS011;1788;49.400;11.092;2022-09-09T17:18:28;0.60;;;0.50;;
3547;SDS011;1788;49.400;11.092;2022-09-09T17:20:54;1.33;;;0.80;;
3547;SDS011;1788;49.400;11.092;2022-09-09T17:23:22;0.80;;;0.50;;
3547;SDS011;1788;49.400;11.092;2022-09-09T17:28:15;0.60;;;0.50;;
3547;SDS011;1788;49.400;11.092;2022-09-09T17:30:42;0.93;;;0.50;;
3547;SDS011;1788;49.400;11.092;2022-09-09T17:33:10;0.70;;;0.60;;
3547;SDS011;1788;49.400;11.092;2022-09-09T17:35:36;1.80;;;0.77;;
3547;SDS011;1788;49.400;11.092;2022-09-09T17:38:03;1.53;;;0.80;;
3547;SDS011;1788;49.400;11.092;2022-09-09T17:40:29;2.67;;;0.90;;
3547;SDS011;1788;49.400;11.092;2022-09-09T17:42:57;0.57;;;0.50;;
3547;SDS011;1788;49.400;11.092;2022-09-09T17:45:24;1.13;;;0.60;;
3547;SDS011;1788;49.400;11.092;2022-09-09T17:47:50;1.00;;;0.90;;
3547;SDS011;1788;49.400;11.092;2022-09-09T17:50:17;1.57;;;0.83;;
3547;SDS011;1788;49.400;11.092;2022-09-09T17:52:43;1.50;;;0.60;;
3547;SDS011;1788;49.400;11.092;2022-09-09T17:55:11;0.77;;;0.60;;
3547;SDS011;1788;49.400;11.092;2022-09-09T17:57:38;0.87;;;0.50;;
3547;SDS011;1788;49.400;11.092;2022-09-09T18:00:05;0.83;;;0.73;;
3547;SDS011;1788;49.400;11.092;2022-09-09T18:02:31;2.00;;;1.33;;
3547;SDS011;1788;49.400;11.092;2022-09-09T18:04:58;1.40;;;1.27;;
3547;SDS011;1788;49.400;11.092;2022-09-09T18:07:25;2.20;;;1.00;;
3547;SDS011;1788;49.400;11.092;2022-09-09T18:09:52;4.80;;;1.17;;
3547;SDS011;1788;49.400;11.092;2022-09-09T18:12:19;1.67;;;1.43;;
3547;SDS011;1788;49.400;11.092;2022-09-09T18:14:46;3.03;;;1.07;;
3547;SDS011;1788;49.400;11.092;2022-09-09T18:17:12;1.20;;;0.93;;
3547;SDS011;1788;49.400;11.092;2022-09-09T18:19:39;3.10;;;1.10;;
3547;SDS011;1788;49.400;11.092;2022-09-09T18:22:05;2.23;;;0.80;;
3547;SDS011;1788;49.400;11.092;2022-09-09T18:24:33;1.67;;;1.03;;
3547;SDS011;1788;49.400;11.092;2022-09-09T18:26:59;1.60;;;0.90;;
3547;SDS011;1788;49.400;11.092;2022-09-09T18:29:27;1.27;;;0.90;;
3547;SDS011;1788;49.400;11.092;2022-09-09T18:31:54;2.63;;;1.67;;
3547;SDS011;1788;49.400;11.092;2022-09-09T18:34:21;4.83;;;1.80;;
3547;SDS011;1788;49.400;11.092;2022-09-09T18:36:49;1.63;;;1.17;;
3547;SDS011;1788;49.400;11.092;2022-09-09T18:39:15;3.03;;;0.80;;
3547;SDS011;1788;49.400;11.092;2022-09-09T18:41:42;2.10;;;0.77;;
3547;SDS011;1788;49.400;11.092;2022-09-09T18:44:09;1.33;;;0.60;;
3547;SDS011;1788;49.400;11.092;2022-09-09T18:46:35;1.80;;;0.60;;
3547;SDS011;1788;49.400;11.092;2022-09-09T18:49:02;0.80;;;0.80;;
3547;SDS011;1788;49.400;11.092;2022-09-09T18:51:29;2.07;;;1.30;;